sensor_id;sensor_type;location;lat;lon;timestamp;P1;durP1;ratioP1;P2;durP2;ratioP2
3347;SDS011;1687;49.540;8.574;2023-03-21T00:01:29;7.03;;;3.30;;
3347;SDS011;1687;49.540;8.574;2023-03-21T00:03:54;9.10;;;3.37;;
3347;SDS011;1687;49.540;8.574;2023-03-21T00:06:20;10.30;;;4.93;;
3347;SDS011;1687;49.540;8.574;2023-03-21T00:08:46;6.97;;;2.90;;
3347;SDS011;1687;49.540;8.574;2023-03-21T00:11:12;6.17;;;3.40;;
3347;SDS011;1687;49.540;8.574;2023-03-21T00:13:38;6.33;;;3.20;;
3347;SDS011;1687;49.540;8.574;2023-03-21T00:18:45;8.93;;;4.07;;
3347;SDS011;1687;49.540;8.574;2023-03-21T00:21:17;7.03;;;3.70;;
3347;SDS011;1687;49.540;8.574;2023-03-21T00:23:44;5.77;;;3.40;;
3347;SDS011;1687;49.540;8.574;2023-03-21T00:26:11;6.67;;;3.80;;
3347;SDS011;1687;49.540;8.574;2023-03-21T00:28:39;10.27;;;4.47;;
3347;SDS011;1687;49.540;8.574;2023-03-21T00:31:06;6.33;;;4.20;;
3347;SDS011;1687;49.540;8.574;2023-03-21T00:33:34;4.90;;;2.83;;
3347;SDS011;1687;49.540;8.574;2023-03-21T00:36:00;7.23;;;3.40;;
3347;SDS011;1687;49.540;8.574;2023-03-21T00:38:26;8.33;;;2.97;;
3347;SDS011;1687;49.540;8.574;2023-03-21T00:40:52;6.93;;;3.13;;
3347;SDS011;1687;49.540;8.574;2023-03-21T00:43:18;6.67;;;3.40;;
3347;SDS011;1687;49.540;8.574;2023-03-21T00:45:47;8.33;;;3.90;;
3347;SDS011;1687;49.540;8.574;2023-03-21T00:48:15;7.20;;;3.40;;
3347;SDS011;1687;49.540;8.574;2023-03-21T00:50:43;5.97;;;3.27;;
3347;SDS011;1687;49.540;8.574;2023-03-21T00:53:10;7.67;;;3.63;;
3347;SDS011;1687;49.540;8.574;2023-03-21T00:55:38;5.43;;;3.37;;
3347;SDS011;1687;49.540;8.574;2023-03-21T00:58:04;12.53;;;3.53;;
3347;SDS011;1687;49.540;8.574;2023-03-21T01:00:30;5.87;;;3.80;;
3347;SDS011;1687;49.540;8.574;2023-03-21T01:02:57;6.00;;;2.97;;
3347;SDS011;1687;49.540;8.574;2023-03-21T01:05:29;7.77;;;4.10;;
3347;SDS011;1687;49.540;8.574;2023-03-21T01:08:17;9.00;;;3.97;;
3347;SDS011;1687;49.540;8.574;2023-03-21T01:10:45;12.03;;;3.70;;
3347;SDS011;1687;49.540;8.574;2023-03-21T01:13:14;6.03;;;3.57;;
3347;SDS011;1687;49.540;8.574;2023-03-21T01:15:46;11.33;;;4.30;;
3347;SDS011;1687;49.540;8.574;2023-03-21T01:18:22;6.27;;;3.33;;
3347;SDS011;1687;49.540;8.574;2023-03-21T01:20:51;6.07;;;3.00;;
3347;SDS011;1687;49.540;8.574;2023-03-21T01:23:19;9.80;;;5.10;;
3347;SDS011;1687;49.540;8.574;2023-03-21T01:25:46;10.63;;;4.93;;
3347;SDS011;1687;49.540;8.574;2023-03-21T01:28:13;6.10;;;3.23;;
3347;SDS011;1687;49.540;8.574;2023-03-21T01:30:43;8.77;;;3.67;;
3347;SDS011;1687;49.540;8.574;2023-03-21T01:33:10;7.43;;;3.40;;
3347;SDS011;1687;49.540;8.574;2023-03-21T01:35:37;9.07;;;3.60;;
3347;SDS011;1687;49.540;8.574;2023-03-21T01:38:02;8.00;;;4.03;;
3347;SDS011;1687;49.540;8.574;2023-03-21T01:40:28;10.07;;;4.07;;
3347;SDS011;1687;49.540;8.574;2023-03-21T01:42:55;8.23;;;3.60;;
3347;SDS011;1687;49.540;8.574;2023-03-21T01:48:34;7.97;;;4.37;;
3347;SDS011;1687;49.540;8.574;2023-03-21T01:51:04;11.10;;;4.80;;
3347;SDS011;1687;49.540;8.574;2023-03-21T01:53:30;13.17;;;4.53;;
3347;SDS011;1687;49.540;8.574;2023-03-21T01:56:00;6.27;;;4.13;;
3347;SDS011;1687;49.540;8.574;2023-03-21T01:58:36;7.50;;;4.70;;
3347;SDS011;1687;49.540;8.574;2023-03-21T02:01:04;12.10;;;5.57;;
3347;SDS011;1687;49.540;8.574;2023-03-21T02:03:31;12.77;;;4.73;;
3347;SDS011;1687;49.540;8.574;2023-03-21T02:06:07;11.97;;;5.43;;
3347;SDS011;1687;49.540;8.574;2023-03-21T02:08:37;7.47;;;4.10;;
3347;SDS011;1687;49.540;8.574;2023-03-21T02:11:04;12.73;;;5.30;;
3347;SDS011;1687;49.540;8.574;2023-03-21T02:13:30;10.90;;;5.37;;
3347;SDS011;1687;49.540;8.574;2023-03-21T02:16:13;10.57;;;5.67;;
3347;SDS011;1687;49.540;8.574;2023-03-21T02:25:00;28.00;;;6.30;;
3347;SDS011;1687;49.540;8.574;2023-03-21T02:27:46;15.63;;;4.60;;
3347;SDS011;1687;49.540;8.574;2023-03-21T02:36:55;8.03;;;4.43;;
3347;SDS011;1687;49.540;8.574;2023-03-21T02:42:41;5.37;;;3.50;;
3347;SDS011;1687;49.540;8.574;2023-03-21T02:45:33;10.63;;;4.93;;
3347;SDS011;1687;49.540;8.574;2023-03-21T02:48:14;15.47;;;5.60;;
3347;SDS011;1687;49.540;8.574;2023-03-21T02:50:49;11.30;;;4.10;;
3347;SDS011;1687;49.540;8.574;2023-03-21T02:53:19;5.63;;;3.80;;
3347;SDS011;1687;49.540;8.574;2023-03-21T02:55:49;13.30;;;4.53;;
3347;SDS011;1687;49.540;8.574;2023-03-21T02:58:18;7.80;;;4.67;;
3347;SDS011;1687;49.540;8.574;2023-03-21T03:00:47;8.97;;;4.53;;
3347;SDS011;1687;49.540;8.574;2023-03-21T03:03:14;12.33;;;3.87;;
3347;SDS011;1687;49.540;8.574;2023-03-21T03:05:42;9.23;;;4.80;;
3347;SDS011;1687;49.540;8.574;2023-03-21T03:08:22;10.00;;;6.00;;
3347;SDS011;1687;49.540;8.574;2023-03-21T03:11:28;9.03;;;4.10;;
3347;SDS011;1687;49.540;8.574;2023-03-21T03:25:38;12.97;;;4.77;;
3347;SDS011;1687;49.540;8.574;2023-03-21T03:28:13;11.97;;;5.50;;
3347;SDS011;1687;49.540;8.574;2023-03-21T03:30:44;11.70;;;5.57;;
3347;SDS011;1687;49.540;8.574;2023-03-21T03:33:11;8.87;;;4.37;;
3347;SDS011;1687;49.540;8.574;2023-03-21T03:35:41;13.20;;;6.03;;
3347;SDS011;1687;49.540;8.574;2023-03-21T03:38:08;12.43;;;4.90;;
3347;SDS011;1687;49.540;8.574;2023-03-21T03:40:40;10.07;;;4.80;;
3347;SDS011;1687;49.540;8.574;2023-03-21T03:43:12;12.90;;;4.67;;
3347;SDS011;1687;49.540;8.574;2023-03-21T03:45:49;9.30;;;4.80;;
3347;SDS011;1687;49.540;8.574;2023-03-21T03:48:25;8.13;;;4.80;;
3347;SDS011;1687;49.540;8.574;2023-03-21T03:51:01;19.33;;;5.90;;
3347;SDS011;1687;49.540;8.574;2023-03-21T03:56:09;8.43;;;4.53;;
3347;SDS011;1687;49.540;8.574;2023-03-21T03:58:36;8.90;;;4.80;;
3347;SDS011;1687;49.540;8.574;2023-03-21T04:01:03;16.80;;;6.23;;
3347;SDS011;1687;49.540;8.574;2023-03-21T04:03:31;13.07;;;5.27;;
3347;SDS011;1687;49.540;8.574;2023-03-21T04:06:00;13.63;;;6.03;;
3347;SDS011;1687;49.540;8.574;2023-03-21T04:08:25;12.67;;;6.33;;
3347;SDS011;1687;49.540;8.574;2023-03-21T04:10:51;6.97;;;4.20;;
3347;SDS011;1687;49.540;8.574;2023-03-21T04:13:17;13.10;;;5.70;;
3347;SDS011;1687;49.540;8.574;2023-03-21T04:15:43;11.07;;;5.03;;
3347;SDS011;1687;49.540;8.574;2023-03-21T04:18:09;11.20;;;6.00;;
3347;SDS011;1687;49.540;8.574;2023-03-21T04:20:35;11.80;;;5.53;;
3347;SDS011;1687;49.540;8.574;2023-03-21T04:23:01;8.23;;;5.30;;
3347;SDS011;1687;49.540;8.574;2023-03-21T04:25:26;8.10;;;5.30;;
3347;SDS011;1687;49.540;8.574;2023-03-21T04:27:52;10.03;;;5.43;;
3347;SDS011;1687;49.540;8.574;2023-03-21T04:30:19;11.07;;;6.07;;
3347;SDS011;1687;49.540;8.574;2023-03-21T04:32:48;12.20;;;5.60;;
3347;SDS011;1687;49.540;8.574;2023-03-21T04:35:18;11.00;;;6.63;;
3347;SDS011;1687;49.540;8.574;2023-03-21T04:37:45;10.60;;;6.00;;
3347;SDS011;1687;49.540;8.574;2023-03-21T04:40:11;8.83;;;5.60;;
3347;SDS011;1687;49.540;8.574;2023-03-21T04:42:41;15.87;;;6.40;;
3347;SDS011;1687;49.540;8.574;2023-03-21T04:45:08;10.27;;;5.40;;
3347;SDS011;1687;49.540;8.574;2023-03-21T04:47:34;15.10;;;6.20;;
3347;SDS011;1687;49.540;8.574;2023-03-21T04:50:00;13.90;;;5.40;;
3347;SDS011;1687;49.540;8.574;2023-03-21T04:52:26;10.00;;;6.13;;
3347;SDS011;1687;49.540;8.574;2023-03-21T04:54:52;13.70;;;6.50;;
3347;SDS011;1687;49.540;8.574;2023-03-21T04:57:17;12.40;;;5.87;;
3347;SDS011;1687;49.540;8.574;2023-03-21T04:59:43;13.20;;;6.73;;
3347;SDS011;1687;49.540;8.574;2023-03-21T05:02:09;14.63;;;5.30;;
3347;SDS011;1687;49.540;8.574;2023-03-21T05:04:36;11.60;;;6.03;;
3347;SDS011;1687;49.540;8.574;2023-03-21T05:07:02;9.70;;;5.20;;
3347;SDS011;1687;49.540;8.574;2023-03-21T05:09:28;16.60;;;7.13;;
3347;SDS011;1687;49.540;8.574;2023-03-21T05:11:54;16.40;;;6.63;;
3347;SDS011;1687;49.540;8.574;2023-03-21T05:14:21;15.03;;;7.50;;
3347;SDS011;1687;49.540;8.574;2023-03-21T05:16:49;14.90;;;6.23;;
3347;SDS011;1687;49.540;8.574;2023-03-21T05:19:29;14.33;;;6.80;;
3347;SDS011;1687;49.540;8.574;2023-03-21T05:22:06;15.27;;;7.30;;
3347;SDS011;1687;49.540;8.574;2023-03-21T05:24:35;12.90;;;7.33;;
3347;SDS011;1687;49.540;8.574;2023-03-21T05:27:03;13.60;;;6.57;;
3347;SDS011;1687;49.540;8.574;2023-03-21T05:29:30;15.50;;;8.37;;
3347;SDS011;1687;49.540;8.574;2023-03-21T05:32:00;25.97;;;9.07;;
3347;SDS011;1687;49.540;8.574;2023-03-21T05:34:26;16.63;;;7.40;;
3347;SDS011;1687;49.540;8.574;2023-03-21T05:36:53;10.90;;;7.00;;
3347;SDS011;1687;49.540;8.574;2023-03-21T05:39:19;18.93;;;6.00;;
3347;SDS011;1687;49.540;8.574;2023-03-21T05:41:45;20.67;;;7.77;;
3347;SDS011;1687;49.540;8.574;2023-03-21T05:44:11;18.73;;;6.77;;
3347;SDS011;1687;49.540;8.574;2023-03-21T05:46:37;16.43;;;7.17;;
3347;SDS011;1687;49.540;8.574;2023-03-21T05:49:02;11.60;;;5.70;;
3347;SDS011;1687;49.540;8.574;2023-03-21T05:51:28;18.67;;;7.23;;
3347;SDS011;1687;49.540;8.574;2023-03-21T05:53:54;12.43;;;6.83;;
3347;SDS011;1687;49.540;8.574;2023-03-21T05:56:20;17.20;;;7.00;;
3347;SDS011;1687;49.540;8.574;2023-03-21T05:58:45;11.33;;;6.43;;
3347;SDS011;1687;49.540;8.574;2023-03-21T06:01:11;13.93;;;6.57;;
3347;SDS011;1687;49.540;8.574;2023-03-21T06:03:37;15.53;;;6.70;;
3347;SDS011;1687;49.540;8.574;2023-03-21T06:06:03;14.23;;;6.43;;
3347;SDS011;1687;49.540;8.574;2023-03-21T06:08:29;19.40;;;7.83;;
3347;SDS011;1687;49.540;8.574;2023-03-21T06:10:56;19.70;;;7.30;;
3347;SDS011;1687;49.540;8.574;2023-03-21T06:13:21;12.27;;;7.17;;
3347;SDS011;1687;49.540;8.574;2023-03-21T06:15:47;16.37;;;6.50;;
3347;SDS011;1687;49.540;8.574;2023-03-21T06:18:13;18.43;;;8.90;;
3347;SDS011;1687;49.540;8.574;2023-03-21T06:20:39;18.50;;;7.83;;
3347;SDS011;1687;49.540;8.574;2023-03-21T06:23:05;14.80;;;8.20;;
3347;SDS011;1687;49.540;8.574;2023-03-21T06:25:30;13.67;;;8.10;;
3347;SDS011;1687;49.540;8.574;2023-03-21T06:27:56;17.93;;;8.30;;
3347;SDS011;1687;49.540;8.574;2023-03-21T06:30:22;19.13;;;9.00;;
3347;SDS011;1687;49.540;8.574;2023-03-21T06:32:47;15.60;;;8.73;;
3347;SDS011;1687;49.540;8.574;2023-03-21T06:35:13;14.00;;;6.93;;
3347;SDS011;1687;49.540;8.574;2023-03-21T06:37:39;18.67;;;8.13;;
3347;SDS011;1687;49.540;8.574;2023-03-21T06:40:05;19.37;;;8.13;;
3347;SDS011;1687;49.540;8.574;2023-03-21T06:42:33;19.17;;;8.70;;
3347;SDS011;1687;49.540;8.574;2023-03-21T06:44:59;16.27;;;7.73;;
3347;SDS011;1687;49.540;8.574;2023-03-21T06:47:25;19.87;;;7.87;;
3347;SDS011;1687;49.540;8.574;2023-03-21T06:49:50;11.87;;;6.90;;
3347;SDS011;1687;49.540;8.574;2023-03-21T06:52:16;18.20;;;8.70;;
3347;SDS011;1687;49.540;8.574;2023-03-21T06:54:42;10.13;;;6.30;;
3347;SDS011;1687;49.540;8.574;2023-03-21T06:57:07;13.43;;;7.23;;
3347;SDS011;1687;49.540;8.574;2023-03-21T06:59:33;13.23;;;5.87;;
3347;SDS011;1687;49.540;8.574;2023-03-21T07:02:00;11.10;;;5.90;;
3347;SDS011;1687;49.540;8.574;2023-03-21T07:04:26;19.10;;;7.63;;
3347;SDS011;1687;49.540;8.574;2023-03-21T07:06:52;12.53;;;7.27;;
3347;SDS011;1687;49.540;8.574;2023-03-21T07:09:18;14.53;;;7.50;;
3347;SDS011;1687;49.540;8.574;2023-03-21T07:11:48;19.20;;;7.67;;
3347;SDS011;1687;49.540;8.574;2023-03-21T07:14:17;13.43;;;6.40;;
3347;SDS011;1687;49.540;8.574;2023-03-21T07:16:43;12.47;;;7.27;;
3347;SDS011;1687;49.540;8.574;2023-03-21T07:19:08;13.33;;;7.33;;
3347;SDS011;1687;49.540;8.574;2023-03-21T07:21:34;17.10;;;7.00;;
3347;SDS011;1687;49.540;8.574;2023-03-21T07:24:00;14.00;;;7.40;;
3347;SDS011;1687;49.540;8.574;2023-03-21T07:26:25;15.70;;;7.50;;
3347;SDS011;1687;49.540;8.574;2023-03-21T07:28:51;10.10;;;6.10;;
3347;SDS011;1687;49.540;8.574;2023-03-21T07:31:17;14.63;;;7.90;;
3347;SDS011;1687;49.540;8.574;2023-03-21T07:33:44;13.97;;;6.57;;
3347;SDS011;1687;49.540;8.574;2023-03-21T07:36:13;16.50;;;6.83;;
3347;SDS011;1687;49.540;8.574;2023-03-21T07:38:41;14.40;;;6.43;;
3347;SDS011;1687;49.540;8.574;2023-03-21T07:41:08;13.50;;;7.27;;
3347;SDS011;1687;49.540;8.574;2023-03-21T07:43:34;13.60;;;7.30;;
3347;SDS011;1687;49.540;8.574;2023-03-21T07:46:00;14.10;;;7.03;;
3347;SDS011;1687;49.540;8.574;2023-03-21T07:48:26;16.40;;;6.20;;
3347;SDS011;1687;49.540;8.574;2023-03-21T07:50:52;15.70;;;7.77;;
3347;SDS011;1687;49.540;8.574;2023-03-21T07:53:18;30.13;;;7.20;;
3347;SDS011;1687;49.540;8.574;2023-03-21T07:55:44;16.83;;;6.77;;
3347;SDS011;1687;49.540;8.574;2023-03-21T07:58:14;11.43;;;6.73;;
3347;SDS011;1687;49.540;8.574;2023-03-21T08:00:40;14.00;;;6.80;;
3347;SDS011;1687;49.540;8.574;2023-03-21T08:03:06;15.90;;;7.30;;
3347;SDS011;1687;49.540;8.574;2023-03-21T08:05:33;23.37;;;7.40;;
3347;SDS011;1687;49.540;8.574;2023-03-21T08:08:01;16.37;;;8.00;;
3347;SDS011;1687;49.540;8.574;2023-03-21T08:10:28;13.43;;;6.60;;
3347;SDS011;1687;49.540;8.574;2023-03-21T08:12:53;15.47;;;8.10;;
3347;SDS011;1687;49.540;8.574;2023-03-21T08:15:19;20.13;;;7.73;;
3347;SDS011;1687;49.540;8.574;2023-03-21T08:17:45;18.73;;;6.27;;
3347;SDS011;1687;49.540;8.574;2023-03-21T08:20:16;13.50;;;7.07;;
3347;SDS011;1687;49.540;8.574;2023-03-21T08:22:46;16.00;;;7.67;;
3347;SDS011;1687;49.540;8.574;2023-03-21T08:25:13;12.77;;;6.30;;
3347;SDS011;1687;49.540;8.574;2023-03-21T08:27:42;14.93;;;8.33;;
3347;SDS011;1687;49.540;8.574;2023-03-21T08:30:09;13.00;;;6.57;;
3347;SDS011;1687;49.540;8.574;2023-03-21T08:32:37;19.40;;;7.10;;
3347;SDS011;1687;49.540;8.574;2023-03-21T08:35:05;18.30;;;8.00;;
3347;SDS011;1687;49.540;8.574;2023-03-21T08:37:34;16.43;;;6.87;;
3347;SDS011;1687;49.540;8.574;2023-03-21T08:40:04;9.50;;;5.60;;
3347;SDS011;1687;49.540;8.574;2023-03-21T08:42:35;38.53;;;6.13;;
3347;SDS011;1687;49.540;8.574;2023-03-21T08:45:02;16.20;;;6.10;;
3347;SDS011;1687;49.540;8.574;2023-03-21T08:47:29;8.57;;;5.30;;
3347;SDS011;1687;49.540;8.574;2023-03-21T08:49:56;13.00;;;6.90;;
3347;SDS011;1687;49.540;8.574;2023-03-21T08:52:22;9.27;;;4.37;;
3347;SDS011;1687;49.540;8.574;2023-03-21T08:54:49;10.97;;;5.00;;
3347;SDS011;1687;49.540;8.574;2023-03-21T08:57:15;11.93;;;5.10;;
3347;SDS011;1687;49.540;8.574;2023-03-21T08:59:41;9.23;;;4.10;;
3347;SDS011;1687;49.540;8.574;2023-03-21T09:02:06;18.20;;;5.20;;
3347;SDS011;1687;49.540;8.574;2023-03-21T09:04:35;15.93;;;4.60;;
3347;SDS011;1687;49.540;8.574;2023-03-21T09:07:00;7.80;;;5.03;;
3347;SDS011;1687;49.540;8.574;2023-03-21T09:09:28;10.60;;;5.57;;
3347;SDS011;1687;49.540;8.574;2023-03-21T09:11:54;13.43;;;6.37;;
3347;SDS011;1687;49.540;8.574;2023-03-21T09:14:20;11.17;;;5.07;;
3347;SDS011;1687;49.540;8.574;2023-03-21T09:16:46;12.60;;;5.80;;
3347;SDS011;1687;49.540;8.574;2023-03-21T09:19:12;11.97;;;5.73;;
3347;SDS011;1687;49.540;8.574;2023-03-21T09:21:38;16.10;;;5.20;;
3347;SDS011;1687;49.540;8.574;2023-03-21T09:24:04;8.97;;;4.80;;
3347;SDS011;1687;49.540;8.574;2023-03-21T09:26:31;8.17;;;5.60;;
3347;SDS011;1687;49.540;8.574;2023-03-21T09:28:57;13.40;;;6.53;;
3347;SDS011;1687;49.540;8.574;2023-03-21T09:31:25;11.43;;;5.77;;
3347;SDS011;1687;49.540;8.574;2023-03-21T09:33:54;10.93;;;4.67;;
3347;SDS011;1687;49.540;8.574;2023-03-21T09:36:21;12.37;;;5.37;;
3347;SDS011;1687;49.540;8.574;2023-03-21T09:38:48;9.87;;;5.40;;
3347;SDS011;1687;49.540;8.574;2023-03-21T09:49:36;10.40;;;5.47;;
3347;SDS011;1687;49.540;8.574;2023-03-21T09:52:18;12.30;;;4.50;;
3347;SDS011;1687;49.540;8.574;2023-03-21T09:54:50;11.73;;;5.43;;
3347;SDS011;1687;49.540;8.574;2023-03-21T09:57:23;10.90;;;4.37;;
3347;SDS011;1687;49.540;8.574;2023-03-21T10:00:06;11.10;;;5.23;;
3347;SDS011;1687;49.540;8.574;2023-03-21T10:02:44;11.57;;;4.60;;
3347;SDS011;1687;49.540;8.574;2023-03-21T10:05:22;12.90;;;4.90;;
3347;SDS011;1687;49.540;8.574;2023-03-21T10:07:55;7.27;;;4.30;;
3347;SDS011;1687;49.540;8.574;2023-03-21T10:10:29;9.03;;;4.50;;
3347;SDS011;1687;49.540;8.574;2023-03-21T10:13:00;9.60;;;4.93;;
3347;SDS011;1687;49.540;8.574;2023-03-21T10:15:28;11.50;;;5.83;;
3347;SDS011;1687;49.540;8.574;2023-03-21T10:18:01;7.60;;;4.40;;
3347;SDS011;1687;49.540;8.574;2023-03-21T10:20:31;10.77;;;4.00;;
3347;SDS011;1687;49.540;8.574;2023-03-21T10:23:03;6.07;;;3.63;;
3347;SDS011;1687;49.540;8.574;2023-03-21T10:28:20;9.13;;;4.97;;
3347;SDS011;1687;49.540;8.574;2023-03-21T10:30:54;9.53;;;3.93;;
3347;SDS011;1687;49.540;8.574;2023-03-21T10:33:24;6.93;;;3.70;;
3347;SDS011;1687;49.540;8.574;2023-03-21T10:36:01;6.00;;;3.80;;
3347;SDS011;1687;49.540;8.574;2023-03-21T10:38:32;8.30;;;3.63;;
3347;SDS011;1687;49.540;8.574;2023-03-21T10:40:59;11.53;;;5.20;;
3347;SDS011;1687;49.540;8.574;2023-03-21T10:45:50;9.80;;;3.87;;
3347;SDS011;1687;49.540;8.574;2023-03-21T10:48:18;14.63;;;4.50;;
3347;SDS011;1687;49.540;8.574;2023-03-21T10:50:45;8.83;;;3.70;;
3347;SDS011;1687;49.540;8.574;2023-03-21T10:53:37;5.23;;;3.23;;
3347;SDS011;1687;49.540;8.574;2023-03-21T10:56:05;7.90;;;3.70;;
3347;SDS011;1687;49.540;8.574;2023-03-21T10:58:35;9.50;;;4.30;;
3347;SDS011;1687;49.540;8.574;2023-03-21T11:01:09;9.40;;;4.20;;
3347;SDS011;1687;49.540;8.574;2023-03-21T11:03:41;5.70;;;3.43;;
3347;SDS011;1687;49.540;8.574;2023-03-21T11:06:32;11.43;;;3.37;;
3347;SDS011;1687;49.540;8.574;2023-03-21T11:09:14;10.83;;;4.20;;
3347;SDS011;1687;49.540;8.574;2023-03-21T11:17:00;4.97;;;3.30;;
3347;SDS011;1687;49.540;8.574;2023-03-21T11:19:35;8.97;;;4.47;;
3347;SDS011;1687;49.540;8.574;2023-03-21T11:22:04;8.77;;;4.27;;
3347;SDS011;1687;49.540;8.574;2023-03-21T11:24:31;7.10;;;3.57;;
3347;SDS011;1687;49.540;8.574;2023-03-21T11:26:59;9.97;;;4.03;;
3347;SDS011;1687;49.540;8.574;2023-03-21T11:29:33;6.43;;;3.40;;
3347;SDS011;1687;49.540;8.574;2023-03-21T11:32:10;5.90;;;3.40;;
3347;SDS011;1687;49.540;8.574;2023-03-21T11:34:53;9.60;;;4.90;;
3347;SDS011;1687;49.540;8.574;2023-03-21T11:37:38;8.07;;;4.00;;
3347;SDS011;1687;49.540;8.574;2023-03-21T11:40:23;8.17;;;3.87;;
3347;SDS011;1687;49.540;8.574;2023-03-21T11:43:24;9.47;;;3.83;;
3347;SDS011;1687;49.540;8.574;2023-03-21T11:46:04;9.57;;;4.40;;
3347;SDS011;1687;49.540;8.574;2023-03-21T11:48:34;7.67;;;3.80;;
3347;SDS011;1687;49.540;8.574;2023-03-21T11:51:14;9.40;;;4.60;;
3347;SDS011;1687;49.540;8.574;2023-03-21T11:54:06;7.40;;;4.40;;
3347;SDS011;1687;49.540;8.574;2023-03-21T11:56:48;7.70;;;3.93;;
3347;SDS011;1687;49.540;8.574;2023-03-21T12:01:53;7.67;;;4.03;;
3347;SDS011;1687;49.540;8.574;2023-03-21T12:04:52;10.53;;;4.73;;
3347;SDS011;1687;49.540;8.574;2023-03-21T12:19:30;12.60;;;5.70;;
3347;SDS011;1687;49.540;8.574;2023-03-21T12:25:41;4.47;;;3.03;;
3347;SDS011;1687;49.540;8.574;2023-03-21T12:28:47;13.03;;;4.53;;
3347;SDS011;1687;49.540;8.574;2023-03-21T12:32:00;8.60;;;3.73;;
3347;SDS011;1687;49.540;8.574;2023-03-21T12:41:22;6.70;;;3.53;;
3347;SDS011;1687;49.540;8.574;2023-03-21T12:44:03;13.73;;;3.20;;
3347;SDS011;1687;49.540;8.574;2023-03-21T12:46:39;6.37;;;3.30;;
3347;SDS011;1687;49.540;8.574;2023-03-21T12:49:16;8.20;;;3.60;;
3347;SDS011;1687;49.540;8.574;2023-03-21T12:51:50;7.37;;;3.50;;
3347;SDS011;1687;49.540;8.574;2023-03-21T12:54:38;8.93;;;3.17;;
3347;SDS011;1687;49.540;8.574;2023-03-21T13:02:41;7.60;;;3.40;;
3347;SDS011;1687;49.540;8.574;2023-03-21T13:05:31;10.33;;;3.73;;
3347;SDS011;1687;49.540;8.574;2023-03-21T13:08:03;10.60;;;4.03;;
3347;SDS011;1687;49.540;8.574;2023-03-21T13:10:40;8.50;;;3.13;;
3347;SDS011;1687;49.540;8.574;2023-03-21T13:13:21;8.27;;;3.20;;
3347;SDS011;1687;49.540;8.574;2023-03-21T13:15:54;7.77;;;3.17;;
3347;SDS011;1687;49.540;8.574;2023-03-21T13:27:17;4.77;;;2.80;;
3347;SDS011;1687;49.540;8.574;2023-03-21T13:30:03;7.07;;;3.20;;
3347;SDS011;1687;49.540;8.574;2023-03-21T13:32:50;6.50;;;3.57;;
3347;SDS011;1687;49.540;8.574;2023-03-21T13:35:33;8.10;;;3.37;;
3347;SDS011;1687;49.540;8.574;2023-03-21T13:38:17;6.50;;;3.20;;
3347;SDS011;1687;49.540;8.574;2023-03-21T13:40:50;9.67;;;3.53;;
3347;SDS011;1687;49.540;8.574;2023-03-21T13:43:44;6.17;;;2.70;;
3347;SDS011;1687;49.540;8.574;2023-03-21T13:49:00;5.13;;;2.30;;
3347;SDS011;1687;49.540;8.574;2023-03-21T13:54:02;5.90;;;2.43;;
3347;SDS011;1687;49.540;8.574;2023-03-21T13:59:09;9.73;;;3.23;;
3347;SDS011;1687;49.540;8.574;2023-03-21T14:05:06;4.70;;;2.43;;
3347;SDS011;1687;49.540;8.574;2023-03-21T14:07:45;6.63;;;3.50;;
3347;SDS011;1687;49.540;8.574;2023-03-21T14:10:17;9.40;;;3.87;;
3347;SDS011;1687;49.540;8.574;2023-03-21T14:12:54;8.13;;;4.50;;
3347;SDS011;1687;49.540;8.574;2023-03-21T14:15:23;9.07;;;4.37;;
3347;SDS011;1687;49.540;8.574;2023-03-21T14:20:28;11.30;;;4.70;;
3347;SDS011;1687;49.540;8.574;2023-03-21T14:23:06;10.13;;;3.17;;
3347;SDS011;1687;49.540;8.574;2023-03-21T14:25:38;13.10;;;3.80;;
3347;SDS011;1687;49.540;8.574;2023-03-21T14:28:07;6.00;;;3.10;;
3347;SDS011;1687;49.540;8.574;2023-03-21T14:30:41;5.60;;;3.60;;
3347;SDS011;1687;49.540;8.574;2023-03-21T14:36:02;7.43;;;3.20;;
3347;SDS011;1687;49.540;8.574;2023-03-21T14:38:33;9.30;;;5.07;;
3347;SDS011;1687;49.540;8.574;2023-03-21T14:41:02;6.20;;;3.93;;
3347;SDS011;1687;49.540;8.574;2023-03-21T14:43:28;20.83;;;5.30;;
3347;SDS011;1687;49.540;8.574;2023-03-21T14:45:58;12.57;;;5.40;;
3347;SDS011;1687;49.540;8.574;2023-03-21T14:48:29;23.50;;;5.93;;
3347;SDS011;1687;49.540;8.574;2023-03-21T14:51:02;12.10;;;5.03;;
3347;SDS011;1687;49.540;8.574;2023-03-21T14:53:37;11.60;;;5.10;;
3347;SDS011;1687;49.540;8.574;2023-03-21T14:56:21;12.63;;;6.07;;
3347;SDS011;1687;49.540;8.574;2023-03-21T14:58:49;14.87;;;5.70;;
3347;SDS011;1687;49.540;8.574;2023-03-21T15:01:35;14.50;;;6.00;;
3347;SDS011;1687;49.540;8.574;2023-03-21T15:04:03;13.73;;;4.50;;
3347;SDS011;1687;49.540;8.574;2023-03-21T15:06:30;7.87;;;4.40;;
3347;SDS011;1687;49.540;8.574;2023-03-21T15:09:03;11.90;;;5.77;;
3347;SDS011;1687;49.540;8.574;2023-03-21T15:11:36;10.13;;;4.77;;
3347;SDS011;1687;49.540;8.574;2023-03-21T15:14:04;10.30;;;4.80;;
3347;SDS011;1687;49.540;8.574;2023-03-21T15:16:36;9.60;;;5.10;;
3347;SDS011;1687;49.540;8.574;2023-03-21T15:19:03;12.43;;;6.17;;
3347;SDS011;1687;49.540;8.574;2023-03-21T15:21:39;14.97;;;6.50;;
3347;SDS011;1687;49.540;8.574;2023-03-21T15:24:36;14.07;;;6.93;;
3347;SDS011;1687;49.540;8.574;2023-03-21T15:27:11;12.67;;;6.23;;
3347;SDS011;1687;49.540;8.574;2023-03-21T15:29:41;10.73;;;4.80;;
3347;SDS011;1687;49.540;8.574;2023-03-21T15:32:18;8.50;;;4.60;;
3347;SDS011;1687;49.540;8.574;2023-03-21T15:34:48;13.70;;;6.07;;
3347;SDS011;1687;49.540;8.574;2023-03-21T15:37:17;11.63;;;5.80;;
3347;SDS011;1687;49.540;8.574;2023-03-21T15:39:52;16.67;;;6.30;;
3347;SDS011;1687;49.540;8.574;2023-03-21T15:42:33;18.00;;;6.27;;
3347;SDS011;1687;49.540;8.574;2023-03-21T15:45:12;9.63;;;5.43;;
3347;SDS011;1687;49.540;8.574;2023-03-21T15:47:51;10.33;;;4.87;;
3347;SDS011;1687;49.540;8.574;2023-03-21T15:50:31;11.53;;;4.90;;
3347;SDS011;1687;49.540;8.574;2023-03-21T15:53:02;13.43;;;5.40;;
3347;SDS011;1687;49.540;8.574;2023-03-21T15:55:46;15.80;;;5.90;;
3347;SDS011;1687;49.540;8.574;2023-03-21T15:58:21;11.63;;;6.80;;
3347;SDS011;1687;49.540;8.574;2023-03-21T16:00:51;13.97;;;7.47;;
3347;SDS011;1687;49.540;8.574;2023-03-21T16:06:05;9.20;;;5.17;;
3347;SDS011;1687;49.540;8.574;2023-03-21T16:08:43;10.47;;;4.90;;
3347;SDS011;1687;49.540;8.574;2023-03-21T16:13:48;11.07;;;5.50;;
3347;SDS011;1687;49.540;8.574;2023-03-21T16:18:47;12.43;;;5.17;;
3347;SDS011;1687;49.540;8.574;2023-03-21T16:21:14;9.67;;;5.73;;
3347;SDS011;1687;49.540;8.574;2023-03-21T16:23:43;11.83;;;5.27;;
3347;SDS011;1687;49.540;8.574;2023-03-21T16:26:11;12.53;;;5.73;;
3347;SDS011;1687;49.540;8.574;2023-03-21T16:28:40;19.00;;;7.00;;
3347;SDS011;1687;49.540;8.574;2023-03-21T16:31:10;15.57;;;7.27;;
3347;SDS011;1687;49.540;8.574;2023-03-21T16:33:47;15.70;;;6.83;;
3347;SDS011;1687;49.540;8.574;2023-03-21T16:36:16;9.97;;;6.70;;
3347;SDS011;1687;49.540;8.574;2023-03-21T16:38:49;32.40;;;5.60;;
3347;SDS011;1687;49.540;8.574;2023-03-21T16:41:16;15.90;;;6.80;;
3347;SDS011;1687;49.540;8.574;2023-03-21T16:43:43;14.73;;;5.63;;
3347;SDS011;1687;49.540;8.574;2023-03-21T16:46:11;15.43;;;6.47;;
3347;SDS011;1687;49.540;8.574;2023-03-21T16:48:50;15.50;;;8.60;;
3347;SDS011;1687;49.540;8.574;2023-03-21T16:51:20;22.20;;;9.37;;
3347;SDS011;1687;49.540;8.574;2023-03-21T16:53:51;28.33;;;7.30;;
3347;SDS011;1687;49.540;8.574;2023-03-21T16:58:48;14.53;;;6.73;;
3347;SDS011;1687;49.540;8.574;2023-03-21T17:01:15;12.67;;;6.90;;
3347;SDS011;1687;49.540;8.574;2023-03-21T17:03:44;21.17;;;7.50;;
3347;SDS011;1687;49.540;8.574;2023-03-21T17:06:12;12.80;;;7.30;;
3347;SDS011;1687;49.540;8.574;2023-03-21T17:08:43;23.40;;;9.80;;
3347;SDS011;1687;49.540;8.574;2023-03-21T17:11:10;12.33;;;7.27;;
3347;SDS011;1687;49.540;8.574;2023-03-21T17:13:40;14.70;;;6.70;;
3347;SDS011;1687;49.540;8.574;2023-03-21T17:16:11;11.77;;;7.23;;
3347;SDS011;1687;49.540;8.574;2023-03-21T17:18:39;12.50;;;6.17;;
3347;SDS011;1687;49.540;8.574;2023-03-21T17:21:12;13.47;;;7.57;;
3347;SDS011;1687;49.540;8.574;2023-03-21T17:23:47;21.83;;;8.30;;
3347;SDS011;1687;49.540;8.574;2023-03-21T17:26:15;22.67;;;10.50;;
3347;SDS011;1687;49.540;8.574;2023-03-21T17:28:48;11.77;;;6.60;;
3347;SDS011;1687;49.540;8.574;2023-03-21T17:31:15;13.37;;;6.30;;